Time,TemperatureF,DewpointF,PressureIn,WindDirection,WindDirectionDegrees,WindSpeedMPH,WindSpeedGustMPH,Humidity,HourlyPrecipIn,Conditions,Clouds,dailyrainin,SoftwareType,DateUTC
2013-05-21 00:01:00,63.5,63.5,30.83,South,177,8.1,8.1,100,0.00,,,0.00,VWS V13.01,2013-05-21 05:01:00,
2013-05-21 00:02:00,63.5,63.5,30.83,South,182,8.7,8.7,100,0.00,,,0.00,VWS V13.01,2013-05-21 05:02:00,
2013-05-21 00:06:00,63.3,63.3,30.83,South,181,6.3,6.3,100,0.00,,,0.00,VWS V13.01,2013-05-21 05:06:00,
2013-05-21 00:07:00,63.3,63.3,30.83,South,187,6.3,6.3,100,0.00,,,0.00,VWS V13.01,2013-05-21 05:07:00,
2013-05-21 00:11:00,63.3,63.3,30.83,South,185,6.3,6.3,100,0.00,,,0.00,VWS V13.01,2013-05-21 05:11:00,
2013-05-21 00:12:00,63.3,63.3,30.83,South,185,7.6,7.6,100,0.00,,,0.00,VWS V13.01,2013-05-21 05:12:00,
2013-05-21 00:13:00,63.3,63.3,30.83,SSW,195,6.7,6.7,100,0.00,,,0.00,VWS V13.01,2013-05-21 05:13:00,
2013-05-21 00:16:00,63.1,63.1,30.83,South,190,6.7,6.7,100,0.00,,,0.00,VWS V13.01,2013-05-21 05:16:00,
2013-05-21 00:17:00,63.3,63.3,30.83,South,185,8.1,8.1,100,0.00,,,0.00,VWS V13.01,2013-05-21 05:17:00,
2013-05-21 00:18:00,63.1,63.1,30.83,South,186,6.3,6.3,100,0.00,,,0.00,VWS V13.01,2013-05-21 05:18:00,
2013-05-21 00:21:00,63.1,63.1,30.83,South,190,6.7,6.7,100,0.00,,,0.00,VWS V13.01,2013-05-21 05:21:00,
2013-05-21 00:22:00,63.1,63.1,30.83,South,190,7.2,7.2,100,0.00,,,0.00,VWS V13.01,2013-05-21 05:22:00,
2013-05-21 00:23:00,63.1,63.1,30.83,South,188,7.6,7.6,100,0.00,,,0.00,VWS V13.01,2013-05-21 05:23:00,
2013-05-21 00:26:00,63.0,63.0,30.83,South,188,5.8,5.8,100,0.00,,,0.00,VWS V13.01,2013-05-21 05:26:00,
2013-05-21 00:27:00,63.0,63.0,30.83,South,187,7.2,7.2,100,0.00,,,0.00,VWS V13.01,2013-05-21 05:27:00,
2013-05-21 00:28:00,63.0,63.0,30.83,South,186,6.3,6.3,100,0.00,,,0.00,VWS V13.01,2013-05-21 05:28:00,
2013-05-21 00:31:00,62.8,62.8,30.83,South,186,5.4,5.4,100,0.00,,,0.00,VWS V13.01,2013-05-21 05:31:00,
2013-05-21 00:32:00,62.8,62.8,30.83,South,186,5.4,5.4,100,0.00,,,0.00,VWS V13.01,2013-05-21 05:32:00,
2013-05-21 00:33:00,62.8,62.8,30.83,South,187,5.8,5.8,100,0.00,,,0.00,VWS V13.01,2013-05-21 05:33:00,
2013-05-21 00:36:00,62.8,62.8,30.83,South,186,5.8,5.8,100,0.00,,,0.00,VWS V13.01,2013-05-21 05:36:00,
2013-05-21 00:37:00,62.8,62.8,30.83,South,186,5.4,5.4,100,0.00,,,0.00,VWS V13.01,2013-05-21 05:37:00,
2013-05-21 00:38:00,62.8,62.8,30.83,South,186,6.3,6.3,100,0.00,,,0.00,VWS V13.01,2013-05-21 05:38:00,
2013-05-21 00:41:00,62.8,62.8,30.83,South,187,6.3,6.3,100,0.00,,,0.00,VWS V13.01,2013-05-21 05:41:00,
2013-05-21 00:42:00,62.8,62.8,30.83,South,187,5.8,5.8,100,0.00,,,0.00,VWS V13.01,2013-05-21 05:42:00,
2013-05-21 00:43:00,62.8,62.8,30.83,South,182,7.2,7.2,100,0.00,,,0.00,VWS V13.01,2013-05-21 05:43:00,
2013-05-21 00:46:00,62.8,62.8,30.83,South,187,7.6,7.6,100,0.00,,,0.00,VWS V13.01,2013-05-21 05:46:00,
2013-05-21 00:47:00,62.8,62.8,30.83,South,180,7.6,7.6,100,0.00,,,0.00,VWS V13.01,2013-05-21 05:47:00,
2013-05-21 00:48:00,62.8,62.8,30.83,SSW,193,7.6,7.6,100,0.00,,,0.00,VWS V13.01,2013-05-21 05:48:00,
2013-05-21 00:51:00,62.8,62.8,30.83,South,189,5.8,5.8,100,0.00,,,0.00,VWS V13.01,2013-05-21 05:51:00,
2013-05-21 00:52:00,62.8,62.8,30.83,South,189,6.3,6.3,100,0.00,,,0.00,VWS V13.01,2013-05-21 05:52:00,
2013-05-21 00:53:00,62.8,62.8,30.83,South,189,5.8,5.8,100,0.00,,,0.00,VWS V13.01,2013-05-21 05:53:00,
2013-05-21 00:56:00,62.6,62.6,30.83,South,188,5.8,5.8,100,0.00,,,0.00,VWS V13.01,2013-05-21 05:56:00,
2013-05-21 00:57:00,62.6,62.6,30.83,South,188,5.8,5.8,100,0.00,,,0.00,VWS V13.01,2013-05-21 05:57:00,
2013-05-21 00:58:00,62.6,62.6,30.83,South,188,7.6,7.6,100,0.00,,,0.00,VWS V13.01,2013-05-21 05:58:00,
2013-05-21 01:01:00,62.8,62.8,30.83,South,189,5.8,5.8,100,0.00,,,0.00,VWS V13.01,2013-05-21 06:01:00,
2013-05-21 01:02:00,62.6,62.6,30.83,South,191,8.3,8.3,100,0.00,,,0.00,VWS V13.01,2013-05-21 06:02:00,
2013-05-21 01:03:00,62.6,62.6,30.83,South,191,5.8,5.8,100,0.00,,,0.00,VWS V13.01,2013-05-21 06:03:00,
2013-05-21 01:04:00,62.6,62.6,30.83,South,191,5.8,5.8,100,0.00,,,0.00,VWS V13.01,2013-05-21 06:04:00,
2013-05-21 01:06:00,62.6,62.6,30.83,South,190,6.3,6.3,100,0.00,,,0.00,VWS V13.01,2013-05-21 06:06:00,
2013-05-21 01:07:00,62.6,62.6,30.83,South,190,6.3,6.3,100,0.00,,,0.00,VWS V13.01,2013-05-21 06:07:00,
2013-05-21 01:08:00,62.6,62.6,30.83,SSW,192,6.3,6.3,100,0.00,,,0.00,VWS V13.01,2013-05-21 06:08:00,
2013-05-21 01:09:00,62.6,62.6,30.83,South,179,8.1,8.1,100,0.00,,,0.00,VWS V13.01,2013-05-21 06:09:00,
2013-05-21 01:11:00,62.6,62.6,30.86,South,188,7.6,7.6,100,0.00,,,0.00,VWS V13.01,2013-05-21 06:11:00,
2013-05-21 01:13:00,62.6,62.6,30.86,South,187,6.3,6.3,100,0.00,,,0.00,VWS V13.01,2013-05-21 06:13:00,
2013-05-21 01:14:00,62.6,62.6,30.86,South,189,7.2,7.2,100,0.00,,,0.00,VWS V13.01,2013-05-21 06:14:00,
2013-05-21 01:16:00,62.6,62.6,30.86,South,186,8.3,8.3,100,0.00,,,0.00,VWS V13.01,2013-05-21 06:16:00,
2013-05-21 01:18:00,62.6,62.6,30.86,South,189,8.1,8.1,100,0.00,,,0.00,VWS V13.01,2013-05-21 06:18:00,
2013-05-21 01:19:00,62.6,62.6,30.86,South,184,6.7,6.7,100,0.00,,,0.00,VWS V13.01,2013-05-21 06:19:00,
2013-05-21 01:21:00,62.6,62.6,30.86,South,184,8.1,8.1,100,0.00,,,0.00,VWS V13.01,2013-05-21 06:21:00,
2013-05-21 01:23:00,62.4,62.4,30.86,South,181,5.8,5.8,100,0.00,,,0.00,VWS V13.01,2013-05-21 06:23:00,
2013-05-21 01:24:00,62.4,62.4,30.86,SSW,192,7.2,7.2,100,0.00,,,0.00,VWS V13.01,2013-05-21 06:24:00,
2013-05-21 01:27:00,62.4,62.4,30.83,South,188,6.3,6.3,100,0.00,,,0.00,VWS V13.01,2013-05-21 06:27:00,
2013-05-21 01:28:00,62.4,62.4,30.83,South,185,5.8,5.8,100,0.00,,,0.00,VWS V13.01,2013-05-21 06:28:00,
2013-05-21 01:29:00,62.4,62.4,30.83,South,187,6.3,6.3,100,0.00,,,0.00,VWS V13.01,2013-05-21 06:29:00,
2013-05-21 01:32:00,62.2,62.2,30.83,South,186,5.8,5.8,100,0.00,,,0.00,VWS V13.01,2013-05-21 06:32:00,
2013-05-21 01:33:00,62.2,62.2,30.83,South,187,8.3,8.3,100,0.00,,,0.00,VWS V13.01,2013-05-21 06:33:00,
2013-05-21 01:34:00,62.2,62.2,30.83,South,186,6.3,6.3,100,0.00,,,0.00,VWS V13.01,2013-05-21 06:34:00,
2013-05-21 01:37:00,62.2,62.2,30.83,South,178,8.1,8.1,100,0.00,,,0.00,VWS V13.01,2013-05-21 06:37:00,
2013-05-21 01:38:00,62.2,62.2,30.83,South,182,6.3,6.3,100,0.00,,,0.00,VWS V13.01,2013-05-21 06:38:00,
2013-05-21 01:39:00,62.2,62.2,30.83,SSW,193,7.2,7.2,100,0.00,,,0.00,VWS V13.01,2013-05-21 06:39:00,
2013-05-21 01:42:00,62.2,62.2,30.83,South,182,6.7,6.7,100,0.00,,,0.00,VWS V13.01,2013-05-21 06:42:00,
2013-05-21 01:43:00,62.2,62.2,30.83,South,188,5.4,5.4,100,0.00,,,0.00,VWS V13.01,2013-05-21 06:43:00,
2013-05-21 01:44:00,62.2,62.2,30.83,South,189,6.3,6.3,100,0.00,,,0.00,VWS V13.01,2013-05-21 06:44:00,
2013-05-21 01:47:00,62.2,62.2,30.83,South,185,7.6,7.6,100,0.00,,,0.00,VWS V13.01,2013-05-21 06:47:00,
2013-05-21 01:48:00,62.2,62.2,30.83,South,186,8.3,8.3,100,0.00,,,0.00,VWS V13.01,2013-05-21 06:48:00,
2013-05-21 01:49:00,62.2,62.2,30.83,South,187,7.6,7.6,100,0.00,,,0.00,VWS V13.01,2013-05-21 06:49:00,
2013-05-21 01:52:00,62.2,62.2,30.83,South,190,6.3,6.3,100,0.00,,,0.00,VWS V13.01,2013-05-21 06:52:00,
2013-05-21 01:53:00,62.2,62.2,30.83,South,190,6.3,6.3,100,0.00,,,0.00,VWS V13.01,2013-05-21 06:53:00,
2013-05-21 01:54:00,62.2,62.2,30.83,South,190,6.3,6.3,100,0.00,,,0.00,VWS V13.01,2013-05-21 06:54:00,
2013-05-21 01:57:00,62.2,62.2,30.80,South,184,8.3,8.3,100,0.00,,,0.00,VWS V13.01,2013-05-21 06:57:00,
2013-05-21 01:58:00,62.2,62.2,30.80,South,186,5.4,5.4,100,0.00,,,0.00,VWS V13.01,2013-05-21 06:58:00,
2013-05-21 01:59:00,62.2,62.2,30.80,South,186,5.8,5.8,100,0.00,,,0.00,VWS V13.01,2013-05-21 06:59:00,
2013-05-21 02:02:00,62.2,62.2,30.80,South,184,5.4,5.4,100,0.00,,,0.00,VWS V13.01,2013-05-21 07:02:00,
2013-05-21 02:03:00,62.2,62.2,30.80,South,184,6.3,6.3,100,0.00,,,0.00,VWS V13.01,2013-05-21 07:03:00,
2013-05-21 02:04:00,62.2,62.2,30.80,South,184,5.8,5.8,100,0.00,,,0.00,VWS V13.01,2013-05-21 07:04:00,
2013-05-21 02:07:00,62.2,62.2,30.80,South,179,6.3,6.3,100,0.00,,,0.00,VWS V13.01,2013-05-21 07:07:00,
2013-05-21 02:08:00,62.2,62.2,30.80,South,177,5.8,5.8,100,0.00,,,0.00,VWS V13.01,2013-05-21 07:08:00,
2013-05-21 02:09:00,62.1,62.1,30.80,South,185,5.8,5.8,100,0.00,,,0.00,VWS V13.01,2013-05-21 07:09:00,
2013-05-21 02:12:00,62.1,62.1,30.83,South,184,6.3,6.3,100,0.00,,,0.00,VWS V13.01,2013-05-21 07:12:00,
2013-05-21 02:13:00,62.1,62.1,30.83,South,185,6.7,6.7,100,0.00,,,0.00,VWS V13.01,2013-05-21 07:13:00,
2013-05-21 02:14:00,62.1,62.1,30.83,South,184,8.3,8.3,100,0.00,,,0.00,VWS V13.01,2013-05-21 07:14:00,
2013-05-21 02:15:00,62.1,62.1,30.83,South,184,5.8,5.8,100,0.00,,,0.00,VWS V13.01,2013-05-21 07:15:00,
2013-05-21 02:17:00,61.9,61.9,30.83,South,184,4.5,4.5,100,0.00,,,0.00,VWS V13.01,2013-05-21 07:17:00,
2013-05-21 02:18:00,61.7,61.7,30.83,South,184,3.1,3.1,100,0.00,,,0.00,VWS V13.01,2013-05-21 07:18:00,
2013-05-21 02:19:00,61.7,61.7,30.83,South,184,4.0,4.0,100,0.00,,,0.00,VWS V13.01,2013-05-21 07:19:00,
2013-05-21 02:20:00,61.5,61.5,30.83,South,184,0.0,0.0,100,0.00,,,0.00,VWS V13.01,2013-05-21 07:20:00,
2013-05-21 02:22:00,61.2,61.2,30.83,South,184,0.0,0.0,100,0.00,,,0.00,VWS V13.01,2013-05-21 07:22:00,
2013-05-21 02:23:00,61.3,61.3,30.83,South,184,0.0,0.0,100,0.00,,,0.00,VWS V13.01,2013-05-21 07:23:00,
2013-05-21 02:24:00,61.5,61.5,30.83,South,183,5.4,5.4,100,0.00,,,0.00,VWS V13.01,2013-05-21 07:24:00,
2013-05-21 02:25:00,61.5,61.5,30.83,South,183,4.0,4.0,100,0.00,,,0.00,VWS V13.01,2013-05-21 07:25:00,
2013-05-21 02:27:00,61.5,61.5,30.83,South,183,3.6,3.6,100,0.00,,,0.00,VWS V13.01,2013-05-21 07:27:00,
2013-05-21 02:28:00,61.5,61.5,30.83,South,183,3.6,3.6,100,0.00,,,0.00,VWS V13.01,2013-05-21 07:28:00,
2013-05-21 02:29:00,61.3,61.3,30.83,South,183,2.7,2.7,100,0.00,,,0.00,VWS V13.01,2013-05-21 07:29:00,
2013-05-21 02:30:00,61.3,61.3,30.83,South,183,0.0,0.0,100,0.00,,,0.00,VWS V13.01,2013-05-21 07:30:00,
2013-05-21 02:32:00,61.3,61.3,30.83,South,183,2.7,2.7,100,0.00,,,0.00,VWS V13.01,2013-05-21 07:32:00,
2013-05-21 02:33:00,61.5,61.5,30.83,South,183,4.9,4.9,100,0.00,,,0.00,VWS V13.01,2013-05-21 07:33:00,
2013-05-21 02:34:00,61.7,61.7,30.83,South,183,6.3,6.3,100,0.00,,,0.00,VWS V13.01,2013-05-21 07:34:00,
2013-05-21 02:35:00,61.5,61.5,30.83,South,183,5.8,5.8,100,0.00,,,0.00,VWS V13.01,2013-05-21 07:35:00,
2013-05-21 02:38:00,61.7,61.7,30.83,South,183,5.8,5.8,100,0.00,,,0.00,VWS V13.01,2013-05-21 07:38:00,
2013-05-21 02:39:00,61.7,61.7,30.83,South,183,5.8,5.8,100,0.00,,,0.00,VWS V13.01,2013-05-21 07:39:00,
2013-05-21 02:40:00,61.7,61.7,30.83,South,183,5.4,5.4,100,0.00,,,0.00,VWS V13.01,2013-05-21 07:40:00,
2013-05-21 02:43:00,61.5,61.5,30.83,South,183,3.1,3.1,100,0.00,,,0.00,VWS V13.01,2013-05-21 07:43:00,
2013-05-21 02:44:00,61.5,61.5,30.83,South,183,5.4,5.4,100,0.00,,,0.00,VWS V13.01,2013-05-21 07:44:00,
2013-05-21 02:45:00,61.5,61.5,30.83,South,183,5.4,5.4,100,0.00,,,0.00,VWS V13.01,2013-05-21 07:45:00,
2013-05-21 02:48:00,61.5,61.5,30.83,South,183,5.8,5.8,100,0.00,,,0.00,VWS V13.01,2013-05-21 07:48:00,
2013-05-21 02:49:00,61.7,61.7,30.83,South,182,6.3,6.3,100,0.00,,,0.00,VWS V13.01,2013-05-21 07:49:00,
2013-05-21 02:50:00,61.7,61.7,30.83,South,182,5.4,5.4,100,0.00,,,0.00,VWS V13.01,2013-05-21 07:50:00,
2013-05-21 02:53:00,61.7,61.7,30.83,South,182,5.4,5.4,100,0.00,,,0.00,VWS V13.01,2013-05-21 07:53:00,
2013-05-21 02:54:00,61.7,61.7,30.83,South,182,6.3,6.3,100,0.00,,,0.00,VWS V13.01,2013-05-21 07:54:00,
2013-05-21 02:55:00,61.5,61.5,30.83,South,182,6.3,6.3,100,0.00,,,0.00,VWS V13.01,2013-05-21 07:55:00,
2013-05-21 02:58:00,61.7,61.7,30.83,South,182,5.4,5.4,100,0.00,,,0.00,VWS V13.01,2013-05-21 07:58:00,
2013-05-21 02:59:00,61.7,61.7,30.83,South,182,5.4,5.4,100,0.00,,,0.00,VWS V13.01,2013-05-21 07:59:00,
2013-05-21 03:00:00,61.7,61.7,30.83,South,182,4.9,4.9,100,0.00,,,0.00,VWS V13.01,2013-05-21 08:00:00,
2013-05-21 03:03:00,61.5,61.5,30.83,South,182,4.0,4.0,100,0.00,,,0.00,VWS V13.01,2013-05-21 08:03:00,
2013-05-21 03:04:00,61.5,61.5,30.83,South,182,4.0,4.0,100,0.00,,,0.00,VWS V13.01,2013-05-21 08:04:00,
2013-05-21 03:05:00,61.5,61.5,30.83,South,182,4.9,4.9,100,0.00,,,0.00,VWS V13.01,2013-05-21 08:05:00,
2013-05-21 03:08:00,61.5,61.5,30.83,South,182,5.4,5.4,100,0.00,,,0.00,VWS V13.01,2013-05-21 08:08:00,
2013-05-21 03:09:00,61.7,61.7,30.83,South,182,5.4,5.4,100,0.00,,,0.00,VWS V13.01,2013-05-21 08:09:00,
2013-05-21 03:10:00,61.7,61.7,30.83,South,182,6.3,6.3,100,0.00,,,0.00,VWS V13.01,2013-05-21 08:10:00,
2013-05-21 03:13:00,61.3,61.3,30.83,South,182,5.8,5.8,100,0.00,,,0.00,VWS V13.01,2013-05-21 08:13:00,
2013-05-21 03:14:00,61.3,61.3,30.83,South,182,5.4,5.4,100,0.00,,,0.00,VWS V13.01,2013-05-21 08:14:00,
2013-05-21 03:15:00,61.3,61.3,30.83,South,182,5.4,5.4,100,0.00,,,0.00,VWS V13.01,2013-05-21 08:15:00,
2013-05-21 03:18:00,61.3,61.3,30.83,South,182,5.8,5.8,100,0.00,,,0.00,VWS V13.01,2013-05-21 08:18:00,
2013-05-21 03:19:00,61.3,61.3,30.83,South,182,5.4,5.4,100,0.00,,,0.00,VWS V13.01,2013-05-21 08:19:00,
2013-05-21 03:20:00,61.3,61.3,30.83,South,182,5.4,5.4,100,0.00,,,0.00,VWS V13.01,2013-05-21 08:20:00,
2013-05-21 03:21:00,61.3,61.3,30.83,South,182,6.3,6.3,100,0.00,,,0.00,VWS V13.01,2013-05-21 08:21:00,
2013-05-21 03:23:00,61.2,61.2,30.83,South,182,7.2,7.2,100,0.00,,,0.00,VWS V13.01,2013-05-21 08:23:00,
2013-05-21 03:24:00,61.2,61.2,30.83,South,182,3.6,3.6,100,0.00,,,0.00,VWS V13.01,2013-05-21 08:24:00,
2013-05-21 03:25:00,61.2,61.2,30.83,South,182,4.0,4.0,100,0.00,,,0.00,VWS V13.01,2013-05-21 08:25:00,
2013-05-21 03:26:00,61.3,61.3,30.83,South,181,4.0,4.0,100,0.00,,,0.00,VWS V13.01,2013-05-21 08:26:00,
2013-05-21 03:28:00,61.3,61.3,30.83,South,182,4.0,4.0,100,0.00,,,0.00,VWS V13.01,2013-05-21 08:28:00,
2013-05-21 03:29:00,61.3,61.3,30.83,South,181,6.3,6.3,100,0.00,,,0.00,VWS V13.01,2013-05-21 08:29:00,
2013-05-21 03:30:00,61.3,61.3,30.83,South,181,5.8,5.8,100,0.00,,,0.00,VWS V13.01,2013-05-21 08:30:00,
2013-05-21 03:31:00,61.3,61.3,30.83,South,181,4.9,4.9,100,0.00,,,0.00,VWS V13.01,2013-05-21 08:31:00,
2013-05-21 03:33:00,61.3,61.3,30.83,South,181,5.8,5.8,100,0.00,,,0.00,VWS V13.01,2013-05-21 08:33:00,
2013-05-21 03:34:00,61.3,61.3,30.83,South,181,6.3,6.3,100,0.00,,,0.00,VWS V13.01,2013-05-21 08:34:00,
2013-05-21 03:35:00,61.3,61.3,30.83,South,181,5.4,5.4,100,0.00,,,0.00,VWS V13.01,2013-05-21 08:35:00,
2013-05-21 03:36:00,61.3,61.3,30.83,South,181,4.0,4.0,100,0.00,,,0.00,VWS V13.01,2013-05-21 08:36:00,
2013-05-21 03:38:00,61.2,61.2,30.83,South,181,3.6,3.6,100,0.00,,,0.00,VWS V13.01,2013-05-21 08:38:00,
2013-05-21 03:39:00,61.2,61.2,30.83,South,181,2.7,2.7,100,0.00,,,0.00,VWS V13.01,2013-05-21 08:39:00,
2013-05-21 03:40:00,61.3,61.3,30.83,South,181,5.4,5.4,100,0.00,,,0.00,VWS V13.01,2013-05-21 08:40:00,
2013-05-21 03:41:00,61.3,61.3,30.83,South,181,4.0,4.0,100,0.00,,,0.00,VWS V13.01,2013-05-21 08:41:00,
2013-05-21 03:43:00,61.3,61.3,30.86,South,181,4.0,4.0,100,0.00,,,0.00,VWS V13.01,2013-05-21 08:43:00,
2013-05-21 03:44:00,61.3,61.3,30.86,South,181,4.0,4.0,100,0.00,,,0.00,VWS V13.01,2013-05-21 08:44:00,
2013-05-21 03:45:00,61.0,61.0,30.86,South,181,2.7,2.7,100,0.00,,,0.00,VWS V13.01,2013-05-21 08:45:00,
2013-05-21 03:46:00,61.0,61.0,30.86,South,181,4.0,4.0,100,0.00,,,0.00,VWS V13.01,2013-05-21 08:46:00,
2013-05-21 03:48:00,61.2,61.2,30.86,South,181,4.9,4.9,100,0.00,,,0.00,VWS V13.01,2013-05-21 08:48:00,
2013-05-21 03:49:00,61.0,61.0,30.86,South,181,3.1,3.1,100,0.00,,,0.00,VWS V13.01,2013-05-21 08:49:00,
2013-05-21 03:50:00,61.0,61.0,30.86,South,181,0.0,0.0,100,0.00,,,0.00,VWS V13.01,2013-05-21 08:50:00,
2013-05-21 03:51:00,60.8,60.8,30.86,South,181,0.0,0.0,100,0.00,,,0.00,VWS V13.01,2013-05-21 08:51:00,
2013-05-21 03:53:00,60.6,60.6,30.86,South,181,3.6,3.6,100,0.00,,,0.00,VWS V13.01,2013-05-21 08:53:00,
2013-05-21 03:54:00,60.8,60.8,30.86,South,181,4.0,4.0,100,0.00,,,0.00,VWS V13.01,2013-05-21 08:54:00,
2013-05-21 03:55:00,61.0,61.0,30.86,South,181,5.8,5.8,100,0.00,,,0.00,VWS V13.01,2013-05-21 08:55:00,
2013-05-21 03:56:00,61.0,61.0,30.83,South,181,3.6,3.6,100,0.00,,,0.00,VWS V13.01,2013-05-21 08:56:00,
2013-05-21 03:58:00,60.8,60.8,30.83,South,181,0.0,0.0,100,0.00,,,0.00,VWS V13.01,2013-05-21 08:58:00,
2013-05-21 03:59:00,60.6,60.6,30.83,South,181,0.0,0.0,100,0.00,,,0.00,VWS V13.01,2013-05-21 08:59:00,
2013-05-21 04:00:00,60.6,60.6,30.83,South,181,3.1,3.1,100,0.00,,,0.00,VWS V13.01,2013-05-21 09:00:00,
2013-05-21 04:02:00,60.8,60.8,30.83,South,181,3.6,3.6,100,0.00,,,0.00,VWS V13.01,2013-05-21 09:02:00,
2013-05-21 04:03:00,60.6,60.6,30.83,South,181,0.0,0.0,100,0.00,,,0.00,VWS V13.01,2013-05-21 09:03:00,
2013-05-21 04:05:00,60.6,60.6,30.83,South,181,0.0,0.0,100,0.00,,,0.00,VWS V13.01,2013-05-21 09:05:00,
2013-05-21 04:07:00,60.6,60.6,30.83,South,181,3.1,3.1,100,0.00,,,0.00,VWS V13.01,2013-05-21 09:07:00,
2013-05-21 04:08:00,60.6,60.6,30.83,South,181,0.0,0.0,100,0.00,,,0.00,VWS V13.01,2013-05-21 09:08:00,
2013-05-21 04:10:00,60.6,60.6,30.83,South,181,0.0,0.0,100,0.00,,,0.00,VWS V13.01,2013-05-21 09:10:00,
2013-05-21 04:12:00,60.6,60.6,30.83,South,181,3.1,3.1,100,0.00,,,0.00,VWS V13.01,2013-05-21 09:12:00,
2013-05-21 04:14:00,60.8,60.8,30.86,South,181,3.1,3.1,100,0.00,,,0.00,VWS V13.01,2013-05-21 09:14:00,
2013-05-21 04:15:00,60.6,60.6,30.86,South,181,2.7,2.7,100,0.00,,,0.00,VWS V13.01,2013-05-21 09:15:00,
2013-05-21 04:17:00,60.6,60.6,30.86,South,181,4.9,4.9,100,0.00,,,0.00,VWS V13.01,2013-05-21 09:17:00,
2013-05-21 04:19:00,60.8,60.8,30.86,South,181,4.9,4.9,100,0.00,,,0.00,VWS V13.01,2013-05-21 09:19:00,
2013-05-21 04:20:00,60.8,60.8,30.86,South,181,5.8,5.8,100,0.00,,,0.00,VWS V13.01,2013-05-21 09:20:00,
2013-05-21 04:22:00,60.8,60.8,30.86,South,181,3.6,3.6,100,0.00,,,0.00,VWS V13.01,2013-05-21 09:22:00,
2013-05-21 04:24:00,60.6,60.6,30.86,South,181,2.2,2.2,100,0.00,,,0.00,VWS V13.01,2013-05-21 09:24:00,
2013-05-21 04:25:00,60.4,60.4,30.86,South,181,0.0,0.0,100,0.00,,,0.00,VWS V13.01,2013-05-21 09:25:00,
2013-05-21 04:27:00,60.6,60.6,30.83,South,181,4.0,4.0,100,0.00,,,0.00,VWS V13.01,2013-05-21 09:27:00,
2013-05-21 04:29:00,60.8,60.8,30.83,South,181,4.0,4.0,100,0.00,,,0.00,VWS V13.01,2013-05-21 09:29:00,
2013-05-21 04:30:00,60.6,60.6,30.83,South,181,3.1,3.1,100,0.00,,,0.00,VWS V13.01,2013-05-21 09:30:00,
2013-05-21 04:32:00,60.6,60.6,30.83,South,181,3.1,3.1,100,0.00,,,0.00,VWS V13.01,2013-05-21 09:32:00,
2013-05-21 04:34:00,60.8,60.8,30.83,South,181,5.4,5.4,100,0.00,,,0.00,VWS V13.01,2013-05-21 09:34:00,
2013-05-21 04:35:00,61.0,61.0,30.83,South,181,3.6,3.6,100,0.00,,,0.00,VWS V13.01,2013-05-21 09:35:00,
2013-05-21 04:37:00,60.8,60.8,30.83,South,181,3.1,3.1,100,0.00,,,0.00,VWS V13.01,2013-05-21 09:37:00,
2013-05-21 04:39:00,60.6,60.6,30.83,South,181,3.6,3.6,100,0.00,,,0.00,VWS V13.01,2013-05-21 09:39:00,
2013-05-21 04:40:00,60.6,60.6,30.83,South,181,3.1,3.1,100,0.00,,,0.00,VWS V13.01,2013-05-21 09:40:00,
2013-05-21 04:41:00,60.6,60.6,30.83,South,181,5.4,5.4,100,0.00,,,0.00,VWS V13.01,2013-05-21 09:41:00,
2013-05-21 04:42:00,60.8,60.8,30.86,South,181,5.4,5.4,100,0.00,,,0.00,VWS V13.01,2013-05-21 09:42:00,
2013-05-21 04:44:00,60.6,60.6,30.86,South,181,2.7,2.7,100,0.00,,,0.00,VWS V13.01,2013-05-21 09:44:00,
2013-05-21 04:45:00,60.6,60.6,30.86,South,181,3.6,3.6,100,0.00,,,0.00,VWS V13.01,2013-05-21 09:45:00,
2013-05-21 04:46:00,60.4,60.4,30.86,South,181,3.1,3.1,100,0.00,,,0.00,VWS V13.01,2013-05-21 09:46:00,
2013-05-21 04:47:00,60.4,60.4,30.86,South,181,3.1,3.1,100,0.00,,,0.00,VWS V13.01,2013-05-21 09:47:00,
2013-05-21 04:49:00,60.4,60.4,30.86,South,181,4.9,4.9,100,0.00,,,0.00,VWS V13.01,2013-05-21 09:49:00,
2013-05-21 04:50:00,60.4,60.4,30.86,South,181,4.0,4.0,100,0.00,,,0.00,VWS V13.01,2013-05-21 09:50:00,
2013-05-21 04:51:00,60.4,60.4,30.86,South,181,3.6,3.6,100,0.00,,,0.00,VWS V13.01,2013-05-21 09:51:00,
2013-05-21 04:52:00,60.3,60.3,30.86,South,181,3.6,3.6,100,0.00,,,0.00,VWS V13.01,2013-05-21 09:52:00,
2013-05-21 04:54:00,60.3,60.3,30.86,South,181,0.0,0.0,100,0.00,,,0.00,VWS V13.01,2013-05-21 09:54:00,
2013-05-21 04:55:00,60.1,60.1,30.86,South,181,3.1,3.1,100,0.00,,,0.00,VWS V13.01,2013-05-21 09:55:00,
2013-05-21 04:56:00,60.1,60.1,30.86,South,181,0.0,0.0,100,0.00,,,0.00,VWS V13.01,2013-05-21 09:56:00,
2013-05-21 04:57:00,60.1,60.1,30.86,South,181,0.0,0.0,100,0.00,,,0.00,VWS V13.01,2013-05-21 09:57:00,
2013-05-21 04:59:00,59.9,59.9,30.86,South,181,0.0,0.0,100,0.00,,,0.00,VWS V13.01,2013-05-21 09:59:00,
2013-05-21 05:00:00,59.7,59.7,30.86,South,181,0.0,0.0,100,0.00,,,0.00,VWS V13.01,2013-05-21 10:00:00,
2013-05-21 05:01:00,59.7,59.7,30.86,South,181,0.0,0.0,100,0.00,,,0.00,VWS V13.01,2013-05-21 10:01:00,
2013-05-21 05:02:00,59.7,59.7,30.86,South,181,0.0,0.0,100,0.00,,,0.00,VWS V13.01,2013-05-21 10:02:00,
2013-05-21 05:04:00,59.7,59.7,30.86,South,181,0.0,0.0,100,0.00,,,0.00,VWS V13.01,2013-05-21 10:04:00,
2013-05-21 05:06:00,59.5,59.5,30.86,South,181,0.0,0.0,100,0.00,,,0.00,VWS V13.01,2013-05-21 10:06:00,
2013-05-21 05:07:00,59.4,59.4,30.86,South,181,0.0,0.0,100,0.00,,,0.00,VWS V13.01,2013-05-21 10:07:00,
2013-05-21 05:09:00,59.4,59.4,30.86,South,181,0.0,0.0,100,0.00,,,0.00,VWS V13.01,2013-05-21 10:09:00,
2013-05-21 05:11:00,59.2,59.2,30.86,South,181,0.0,0.0,100,0.00,,,0.00,VWS V13.01,2013-05-21 10:11:00,
2013-05-21 05:12:00,59.2,59.2,30.86,South,181,0.0,0.0,100,0.00,,,0.00,VWS V13.01,2013-05-21 10:12:00,
2013-05-21 05:15:00,59.2,59.2,30.86,South,181,0.0,0.0,100,0.00,,,0.00,VWS V13.01,2013-05-21 10:15:00,
2013-05-21 05:16:00,59.2,59.2,30.86,South,181,0.0,0.0,100,0.00,,,0.00,VWS V13.01,2013-05-21 10:16:00,
2013-05-21 05:17:00,59.2,59.2,30.86,South,181,0.0,0.0,100,0.00,,,0.00,VWS V13.01,2013-05-21 10:17:00,
2013-05-21 05:20:00,59.2,59.2,30.86,South,181,0.0,0.0,100,0.00,,,0.00,VWS V13.01,2013-05-21 10:20:00,
2013-05-21 05:21:00,59.0,59.0,30.86,South,181,0.0,0.0,100,0.00,,,0.00,VWS V13.01,2013-05-21 10:21:00,
2013-05-21 05:22:00,59.0,59.0,30.86,South,181,0.0,0.0,100,0.00,,,0.00,VWS V13.01,2013-05-21 10:22:00,
2013-05-21 05:25:00,59.0,59.0,30.86,South,181,0.0,0.0,100,0.00,,,0.00,VWS V13.01,2013-05-21 10:25:00,
2013-05-21 05:26:00,59.0,59.0,30.86,South,181,0.0,0.0,100,0.00,,,0.00,VWS V13.01,2013-05-21 10:26:00,
2013-05-21 05:27:00,58.8,58.8,30.86,South,181,0.0,0.0,100,0.00,,,0.00,VWS V13.01,2013-05-21 10:27:00,
2013-05-21 05:30:00,58.8,58.8,30.86,West,275,0.0,0.0,100,0.00,,,0.00,VWS V13.01,2013-05-21 10:30:00,
2013-05-21 05:31:00,59.0,59.0,30.86,West,264,0.0,0.0,100,0.00,,,0.00,VWS V13.01,2013-05-21 10:31:00,
2013-05-21 05:32:00,58.8,58.8,30.86,West,261,0.0,0.0,100,0.00,,,0.00,VWS V13.01,2013-05-21 10:32:00,
2013-05-21 05:35:00,58.6,58.6,30.86,West,281,0.0,0.0,100,0.00,,,0.00,VWS V13.01,2013-05-21 10:35:00,
2013-05-21 05:36:00,58.6,58.6,30.86,West,281,0.0,0.0,100,0.00,,,0.00,VWS V13.01,2013-05-21 10:36:00,
2013-05-21 05:37:00,58.5,58.5,30.86,West,277,0.0,0.0,100,0.00,,,0.00,VWS V13.01,2013-05-21 10:37:00,
2013-05-21 05:40:00,58.3,58.3,30.86,West,277,0.0,0.0,100,0.00,,,0.00,VWS V13.01,2013-05-21 10:40:00,
2013-05-21 05:41:00,58.1,58.1,30.86,West,277,0.0,0.0,100,0.00,,,0.00,VWS V13.01,2013-05-21 10:41:00,
2013-05-21 05:42:00,58.1,58.1,30.86,WNW,289,0.0,0.0,100,0.00,,,0.00,VWS V13.01,2013-05-21 10:42:00,
2013-05-21 05:45:00,58.3,58.3,30.86,WNW,290,0.0,0.0,100,0.00,,,0.00,VWS V13.01,2013-05-21 10:45:00,
2013-05-21 05:46:00,58.1,58.1,30.86,WNW,290,0.0,0.0,100,0.00,,,0.00,VWS V13.01,2013-05-21 10:46:00,
2013-05-21 05:47:00,58.1,58.1,30.86,WNW,290,0.0,0.0,100,0.00,,,0.00,VWS V13.01,2013-05-21 10:47:00,
2013-05-21 05:48:00,58.1,58.1,30.86,WNW,290,0.0,0.0,100,0.00,,,0.00,VWS V13.01,2013-05-21 10:48:00,
2013-05-21 05:50:00,57.9,57.9,30.86,WNW,290,0.0,0.0,100,0.00,,,0.00,VWS V13.01,2013-05-21 10:50:00,
2013-05-21 05:51:00,58.1,58.1,30.86,WNW,297,0.0,0.0,100,0.00,,,0.00,VWS V13.01,2013-05-21 10:51:00,
2013-05-21 05:52:00,57.9,57.9,30.86,WNW,297,0.0,0.0,100,0.00,,,0.00,VWS V13.01,2013-05-21 10:52:00,
2013-05-21 05:53:00,57.7,57.7,30.86,WNW,297,0.0,0.0,100,0.00,,,0.00,VWS V13.01,2013-05-21 10:53:00,
2013-05-21 05:55:00,57.9,57.9,30.86,WNW,297,0.0,0.0,100,0.00,,,0.00,VWS V13.01,2013-05-21 10:55:00,
2013-05-21 05:56:00,57.7,57.7,30.86,WNW,297,0.0,0.0,100,0.00,,,0.00,VWS V13.01,2013-05-21 10:56:00,
2013-05-21 05:57:00,57.7,57.7,30.86,WNW,297,0.0,0.0,100,0.00,,,0.00,VWS V13.01,2013-05-21 10:57:00,
2013-05-21 05:58:00,57.7,57.7,30.86,WNW,297,0.0,0.0,100,0.00,,,0.00,VWS V13.01,2013-05-21 10:58:00,
2013-05-21 06:00:00,57.6,57.6,30.86,WNW,297,0.0,0.0,100,0.00,,,0.00,VWS V13.01,2013-05-21 11:00:00,
2013-05-21 06:01:00,57.6,57.6,30.86,WNW,297,0.0,0.0,100,0.00,,,0.00,VWS V13.01,2013-05-21 11:01:00,
2013-05-21 06:02:00,57.6,57.6,30.86,WNW,297,0.0,0.0,100,0.00,,,0.00,VWS V13.01,2013-05-21 11:02:00,
2013-05-21 06:03:00,57.6,57.6,30.86,WNW,297,0.0,0.0,100,0.00,,,0.00,VWS V13.01,2013-05-21 11:03:00,
2013-05-21 06:05:00,57.6,57.6,30.86,WNW,297,0.0,0.0,100,0.00,,,0.00,VWS V13.01,2013-05-21 11:05:00,
2013-05-21 06:06:00,57.7,57.7,30.86,SW,219,0.0,0.0,100,0.00,,,0.00,VWS V13.01,2013-05-21 11:06:00,
2013-05-21 06:07:00,57.9,57.9,30.86,SW,219,0.0,0.0,100,0.00,,,0.00,VWS V13.01,2013-05-21 11:07:00,
2013-05-21 06:08:00,57.9,57.9,30.86,SSW,192,0.0,0.0,100,0.00,,,0.00,VWS V13.01,2013-05-21 11:08:00,
2013-05-21 06:10:00,57.9,57.9,30.86,SSW,192,0.0,0.0,100,0.00,,,0.00,VWS V13.01,2013-05-21 11:10:00,
2013-05-21 06:11:00,57.9,57.9,30.86,SSW,192,0.0,0.0,100,0.00,,,0.00,VWS V13.01,2013-05-21 11:11:00,
2013-05-21 06:12:00,58.1,58.1,30.86,SSW,192,0.0,0.0,100,0.00,,,0.00,VWS V13.01,2013-05-21 11:12:00,
2013-05-21 06:13:00,58.1,58.1,30.86,SSW,192,0.0,0.0,100,0.00,,,0.00,VWS V13.01,2013-05-21 11:13:00,
2013-05-21 06:16:00,57.7,57.7,30.86,SSW,192,0.0,0.0,100,0.00,,,0.00,VWS V13.01,2013-05-21 11:16:00,
2013-05-21 06:17:00,57.6,57.6,30.86,SSW,192,0.0,0.0,100,0.00,,,0.00,VWS V13.01,2013-05-21 11:17:00,
2013-05-21 06:18:00,57.6,57.6,30.86,SSW,192,0.0,0.0,100,0.00,,,0.00,VWS V13.01,2013-05-21 11:18:00,
2013-05-21 06:21:00,57.6,57.6,30.86,SSW,192,0.0,0.0,100,0.00,,,0.00,VWS V13.01,2013-05-21 11:21:00,
2013-05-21 06:22:00,57.7,57.7,30.86,SSW,192,0.0,0.0,100,0.00,,,0.00,VWS V13.01,2013-05-21 11:22:00,
2013-05-21 06:23:00,57.7,57.7,30.86,SSW,192,0.0,0.0,100,0.00,,,0.00,VWS V13.01,2013-05-21 11:23:00,
2013-05-21 06:26:00,57.6,57.6,30.86,SSW,192,0.0,0.0,100,0.00,,,0.00,VWS V13.01,2013-05-21 11:26:00,
2013-05-21 06:27:00,57.6,57.6,30.86,SSW,192,0.0,0.0,100,0.00,,,0.00,VWS V13.01,2013-05-21 11:27:00,
2013-05-21 06:28:00,57.6,57.6,30.86,SSW,192,0.0,0.0,100,0.00,,,0.00,VWS V13.01,2013-05-21 11:28:00,
2013-05-21 06:31:00,57.6,57.6,30.86,SSW,192,0.0,0.0,100,0.00,,,0.00,VWS V13.01,2013-05-21 11:31:00,
2013-05-21 06:33:00,57.6,57.6,30.86,SSW,192,0.0,0.0,100,0.00,,,0.00,VWS V13.01,2013-05-21 11:33:00,
2013-05-21 06:36:00,57.9,57.9,30.86,SSW,192,0.0,0.0,100,0.00,,,0.00,VWS V13.01,2013-05-21 11:36:00,
2013-05-21 06:38:00,58.3,58.3,30.86,SSW,192,0.0,0.0,100,0.00,,,0.00,VWS V13.01,2013-05-21 11:38:00,
2013-05-21 06:41:00,58.3,58.3,30.86,SSW,192,0.0,0.0,100,0.00,,,0.00,VWS V13.01,2013-05-21 11:41:00,
2013-05-21 06:43:00,58.5,58.5,30.89,SSW,192,0.0,0.0,100,0.00,,,0.00,VWS V13.01,2013-05-21 11:43:00,
2013-05-21 06:44:00,58.6,58.6,30.89,SSW,192,0.0,0.0,100,0.00,,,0.00,VWS V13.01,2013-05-21 11:44:00,
2013-05-21 06:46:00,59.7,59.7,30.89,SSW,192,0.0,0.0,100,0.00,,,0.00,VWS V13.01,2013-05-21 11:46:00,
2013-05-21 06:47:00,60.3,60.3,30.89,SSW,192,0.0,0.0,100,0.00,,,0.00,VWS V13.01,2013-05-21 11:47:00,
2013-05-21 06:48:00,60.6,58.0,30.89,SSW,192,0.0,0.0,91,0.00,,,0.00,VWS V13.01,2013-05-21 11:48:00,
2013-05-21 06:49:00,60.6,58.0,30.89,SSW,192,0.0,0.0,91,0.00,,,0.00,VWS V13.01,2013-05-21 11:49:00,
2013-05-21 06:51:00,59.9,57.3,30.89,SSW,192,0.0,0.0,91,0.00,,,0.00,VWS V13.01,2013-05-21 11:51:00,
2013-05-21 06:52:00,59.9,57.3,30.89,SSW,192,0.0,0.0,91,0.00,,,0.00,VWS V13.01,2013-05-21 11:52:00,
2013-05-21 06:53:00,59.7,57.1,30.89,SSW,192,0.0,0.0,91,0.00,,,0.00,VWS V13.01,2013-05-21 11:53:00,
2013-05-21 06:54:00,59.7,57.1,30.89,SSW,192,0.0,0.0,91,0.00,,,0.00,VWS V13.01,2013-05-21 11:54:00,
2013-05-21 06:56:00,59.7,53.2,30.89,SSW,192,0.0,0.0,79,0.00,,,0.00,VWS V13.01,2013-05-21 11:56:00,
2013-05-21 06:57:00,59.7,57.1,30.86,SSW,192,0.0,0.0,91,0.00,,,0.00,VWS V13.01,2013-05-21 11:57:00,
2013-05-21 06:58:00,59.9,53.4,30.86,SSW,192,3.6,3.6,79,0.00,,,0.00,VWS V13.01,2013-05-21 11:58:00,
2013-05-21 06:59:00,59.9,53.4,30.86,SSW,192,4.5,4.5,79,0.00,,,0.00,VWS V13.01,2013-05-21 11:59:00,
2013-05-21 07:01:00,60.8,52.1,30.86,SSW,192,3.1,3.1,73,0.00,,,0.00,VWS V13.01,2013-05-21 12:01:00,
2013-05-21 07:02:00,61.3,52.6,30.86,SSW,192,2.7,2.7,73,0.00,,,0.00,VWS V13.01,2013-05-21 12:02:00,
2013-05-21 07:03:00,61.3,52.6,30.86,SSW,192,3.6,3.6,73,0.00,,,0.00,VWS V13.01,2013-05-21 12:03:00,
2013-05-21 07:04:00,61.0,52.3,30.86,SSW,192,4.0,4.0,73,0.00,,,0.00,VWS V13.01,2013-05-21 12:04:00,
2013-05-21 07:06:00,60.6,54.1,30.86,SSW,192,0.0,0.0,79,0.00,,,0.00,VWS V13.01,2013-05-21 12:06:00,
2013-05-21 07:07:00,60.3,53.7,30.86,SSW,192,0.0,0.0,79,0.00,,,0.00,VWS V13.01,2013-05-21 12:07:00,
2013-05-21 07:08:00,60.1,53.6,30.86,SSW,192,0.0,0.0,79,0.00,,,0.00,VWS V13.01,2013-05-21 12:08:00,
2013-05-21 07:09:00,60.1,53.6,30.86,SSW,192,0.0,0.0,79,0.00,,,0.00,VWS V13.01,2013-05-21 12:09:00,
2013-05-21 07:11:00,59.9,53.4,30.89,SSW,192,0.0,0.0,79,0.00,,,0.00,VWS V13.01,2013-05-21 12:11:00,
2013-05-21 07:12:00,59.9,53.4,30.89,SSW,192,3.1,3.1,79,0.00,,,0.00,VWS V13.01,2013-05-21 12:12:00,
2013-05-21 07:13:00,59.9,53.4,30.89,SSW,192,0.0,0.0,79,0.00,,,0.00,VWS V13.01,2013-05-21 12:13:00,
2013-05-21 07:14:00,59.7,53.2,30.89,SSW,192,0.0,0.0,79,0.00,,,0.00,VWS V13.01,2013-05-21 12:14:00,
2013-05-21 07:16:00,59.5,53.0,30.89,SSW,192,0.0,0.0,79,0.00,,,0.00,VWS V13.01,2013-05-21 12:16:00,
2013-05-21 07:17:00,59.9,53.4,30.89,SSW,192,0.0,0.0,79,0.00,,,0.00,VWS V13.01,2013-05-21 12:17:00,
2013-05-21 07:18:00,60.3,53.7,30.89,SSW,192,0.0,0.0,79,0.00,,,0.00,VWS V13.01,2013-05-21 12:18:00,
2013-05-21 07:19:00,61.0,52.3,30.89,SSW,192,0.0,0.0,73,0.00,,,0.00,VWS V13.01,2013-05-21 12:19:00,
2013-05-21 07:21:00,63.5,54.7,30.89,SSW,192,0.0,0.0,73,0.00,,,0.00,VWS V13.01,2013-05-21 12:21:00,
2013-05-21 07:22:00,63.9,55.0,30.89,SSW,192,0.0,0.0,73,0.00,,,0.00,VWS V13.01,2013-05-21 12:22:00,
2013-05-21 07:23:00,64.0,55.2,30.89,SSW,192,0.0,0.0,73,0.00,,,0.00,VWS V13.01,2013-05-21 12:23:00,
2013-05-21 07:24:00,64.0,55.2,30.89,South,186,0.0,0.0,73,0.00,,,0.00,VWS V13.01,2013-05-21 12:24:00,
2013-05-21 07:26:00,62.4,53.7,30.89,South,185,5.4,5.4,73,0.00,,,0.00,VWS V13.01,2013-05-21 12:26:00,
2013-05-21 07:27:00,61.9,53.1,30.89,South,190,5.8,5.8,73,0.00,,,0.00,VWS V13.01,2013-05-21 12:27:00,
2013-05-21 07:28:00,61.9,53.1,30.89,South,179,5.4,5.4,73,0.00,,,0.00,VWS V13.01,2013-05-21 12:28:00,
2013-05-21 07:29:00,61.9,53.1,30.89,South,188,5.4,5.4,73,0.00,,,0.00,VWS V13.01,2013-05-21 12:29:00,
2013-05-21 22:20:00,60.4,60.4,30.86,South,183,0.0,0.0,100,0.00,,,0.00,VWS V13.01,2013-05-22 03:20:00,